createdAt,value
2022-08-19T00:01:45.234Z,20.34
2022-08-19T00:04:28.518Z,20.32
2022-08-19T00:07:00.354Z,20.21
2022-08-19T00:09:32.310Z,20.21
2022-08-19T00:12:04.094Z,20.17
2022-08-19T00:14:35.744Z,20.15
2022-08-19T00:17:08.979Z,20.13
2022-08-19T00:19:41.523Z,20.06
2022-08-19T00:22:12.873Z,19.98
2022-08-19T00:24:50.878Z,19.91
2022-08-19T00:27:25.532Z,19.90
2022-08-19T00:29:59.776Z,19.93
2022-08-19T00:32:31.321Z,19.99
2022-08-19T00:35:04.682Z,20.06
2022-08-19T00:37:36.343Z,20.13
2022-08-19T00:40:08.598Z,20.14
2022-08-19T00:42:40.528Z,20.18
2022-08-19T00:45:18.185Z,20.15
2022-08-19T00:47:49.765Z,20.13
2022-08-19T00:50:22.039Z,20.14
2022-08-19T00:52:53.688Z,20.18
2022-08-19T00:55:28.950Z,20.19
2022-08-19T00:58:09.995Z,20.15
2022-08-19T01:00:41.837Z,20.15
2022-08-19T01:03:16.444Z,20.13
2022-08-19T01:05:52.817Z,20.13
2022-08-19T01:08:24.372Z,20.13
2022-08-19T01:11:00.360Z,20.10
2022-08-19T01:13:48.885Z,20.05
2022-08-19T01:16:24.744Z,20.05
2022-08-19T01:18:57.543Z,20.01
2022-08-19T01:21:41.354Z,19.97
2022-08-19T01:24:12.742Z,19.97
2022-08-19T01:26:45.286Z,19.94
2022-08-19T01:29:18.066Z,19.91
2022-08-19T01:31:50.082Z,19.88
2022-08-19T01:34:21.392Z,19.87
2022-08-19T01:36:52.723Z,19.83
2022-08-19T01:39:25.908Z,19.80
2022-08-19T01:41:57.348Z,19.75
2022-08-19T01:44:28.703Z,19.70
2022-08-19T01:47:00.221Z,19.65
2022-08-19T01:49:31.612Z,19.67
2022-08-19T01:52:03.870Z,19.64
2022-08-19T01:54:35.330Z,19.69
2022-08-19T01:57:12.170Z,19.78
2022-08-19T01:59:45.906Z,19.78
2022-08-19T02:02:17.508Z,19.71
2022-08-19T02:04:48.867Z,19.69
2022-08-19T02:07:22.546Z,19.73
2022-08-19T02:09:53.834Z,19.71
2022-08-19T02:12:25.287Z,19.62
2022-08-19T02:14:56.669Z,19.59
2022-08-19T02:17:29.817Z,19.57
2022-08-19T02:20:01.334Z,19.52
2022-08-19T02:22:33.718Z,19.53
2022-08-19T02:25:05.816Z,19.47
2022-08-19T02:27:37.258Z,19.53
2022-08-19T02:30:14.223Z,19.51
2022-08-19T02:32:45.941Z,19.50
2022-08-19T02:35:17.694Z,19.50
2022-08-19T02:38:07.518Z,19.56
2022-08-19T02:40:38.854Z,19.52
2022-08-19T02:43:10.208Z,19.55
2022-08-19T02:45:41.762Z,19.54
2022-08-19T02:48:21.294Z,19.53
2022-08-19T02:50:56.281Z,19.53
2022-08-19T02:53:29.158Z,19.50
2022-08-19T02:56:00.597Z,19.53
2022-08-19T02:58:31.918Z,19.52
2022-08-19T03:01:03.620Z,19.53
2022-08-19T03:03:35.006Z,19.57
2022-08-19T03:06:08.977Z,19.64
2022-08-19T03:08:45.558Z,19.70
2022-08-19T03:11:27.057Z,19.72
2022-08-19T03:14:00.920Z,19.71
2022-08-19T03:16:34.832Z,19.65
2022-08-19T03:19:06.129Z,19.65
2022-08-19T03:21:37.458Z,19.61
2022-08-19T03:24:09.500Z,19.62
2022-08-19T03:26:46.499Z,19.61
2022-08-19T03:29:30.901Z,19.63
2022-08-19T03:32:05.426Z,19.61
2022-08-19T03:34:39.010Z,19.61
2022-08-19T03:37:15.629Z,19.61
2022-08-19T03:39:46.947Z,19.58
2022-08-19T03:42:38.913Z,19.53
2022-08-19T03:45:11.167Z,19.51
2022-08-19T03:47:42.592Z,19.46
2022-08-19T03:50:13.917Z,19.43
2022-08-19T03:52:51.310Z,19.44
2022-08-19T03:55:22.733Z,19.39
2022-08-19T03:57:58.605Z,19.45
2022-08-19T04:00:30.536Z,19.42
2022-08-19T04:03:01.924Z,19.38
2022-08-19T04:05:33.358Z,19.33
2022-08-19T04:08:09.600Z,19.35
2022-08-19T04:10:43.359Z,19.37
2022-08-19T04:13:19.003Z,19.37
2022-08-19T04:15:50.671Z,19.34
2022-08-19T04:18:21.966Z,19.41
2022-08-19T04:20:53.276Z,19.41
2022-08-19T04:23:24.810Z,19.42
2022-08-19T04:25:56.992Z,19.37
2022-08-19T04:28:29.726Z,19.38
2022-08-19T04:31:01.041Z,19.35
2022-08-19T04:33:32.333Z,19.35
2022-08-19T04:36:03.942Z,19.34
2022-08-19T04:38:35.222Z,19.35
2022-08-19T04:41:25.262Z,19.34
2022-08-19T04:43:58.413Z,19.40
2022-08-19T04:46:40.053Z,19.41
2022-08-19T04:49:23.763Z,19.39
2022-08-19T04:51:55.690Z,19.38
2022-08-19T04:54:37.386Z,19.38
2022-08-19T04:57:10.725Z,19.36
2022-08-19T04:59:42.368Z,19.40
2022-08-19T05:02:13.701Z,19.42
2022-08-19T05:04:45.022Z,19.37
2022-08-19T05:07:16.334Z,19.42
2022-08-19T05:09:58.647Z,19.43
2022-08-19T05:12:30.396Z,19.41
2022-08-19T05:15:04.135Z,19.40
2022-08-19T05:17:38.658Z,19.32
2022-08-19T05:20:29.504Z,19.41
2022-08-19T05:23:00.876Z,19.46
2022-08-19T05:25:32.172Z,19.48
2022-08-19T05:28:03.667Z,19.46
2022-08-19T05:30:46.866Z,19.52
2022-08-19T05:33:19.425Z,19.51
2022-08-19T05:35:51.511Z,19.64
2022-08-19T05:38:22.942Z,19.70
2022-08-19T05:40:54.296Z,19.68
2022-08-19T05:43:26.423Z,19.76
2022-08-19T05:45:57.744Z,19.74
2022-08-19T05:48:29.166Z,19.77
2022-08-19T05:51:07.004Z,19.79
2022-08-19T05:53:38.785Z,19.73
2022-08-19T05:56:16.911Z,19.71
2022-08-19T05:58:48.342Z,19.69
2022-08-19T06:01:19.930Z,19.66
2022-08-19T06:03:51.762Z,19.57
2022-08-19T06:06:23.114Z,19.60
2022-08-19T06:08:54.424Z,19.56
2022-08-19T06:11:36.061Z,19.55
2022-08-19T06:14:16.483Z,19.54
2022-08-19T06:16:48.191Z,19.58
2022-08-19T06:19:21.881Z,19.65
2022-08-19T06:21:54.129Z,19.68
2022-08-19T06:24:27.947Z,19.71
2022-08-19T06:27:01.606Z,19.67
2022-08-19T06:29:33.459Z,19.72
2022-08-19T06:32:05.395Z,19.74
2022-08-19T06:34:36.821Z,19.74
2022-08-19T06:37:08.714Z,19.72
2022-08-19T06:39:42.693Z,19.74
2022-08-19T06:42:17.190Z,19.74
2022-08-19T06:44:49.939Z,19.73
2022-08-19T06:47:25.244Z,19.75
2022-08-19T06:50:05.384Z,19.73
2022-08-19T06:52:38.258Z,19.78
2022-08-19T06:55:10.127Z,19.76
2022-08-19T06:57:41.449Z,19.81
2022-08-19T07:00:14.556Z,19.75
2022-08-19T07:02:50.592Z,19.67
2022-08-19T07:05:27.057Z,19.61
2022-08-19T07:08:01.704Z,19.55
2022-08-19T07:10:37.393Z,19.56
2022-08-19T07:13:14.154Z,19.64
2022-08-19T07:15:47.275Z,19.70
2022-08-19T07:18:21.219Z,19.69
2022-08-19T07:21:06.631Z,19.70
2022-08-19T07:23:40.910Z,19.64
2022-08-19T07:26:17.257Z,19.57
2022-08-19T07:28:51.371Z,19.54
2022-08-19T07:31:26.798Z,19.59
2022-08-19T07:34:04.241Z,19.61
2022-08-19T07:36:39.901Z,19.65
2022-08-19T07:39:30.183Z,19.66
2022-08-19T07:42:07.825Z,19.64
2022-08-19T07:47:48.197Z,19.61
2022-08-19T07:50:12.371Z,19.59
2022-08-19T07:52:45.212Z,19.61
2022-08-19T07:55:41.967Z,19.60
2022-08-19T07:58:17.215Z,19.60
2022-08-19T08:00:51.230Z,19.67
2022-08-19T08:03:47.031Z,19.69
2022-08-19T08:06:36.901Z,19.73
2022-08-19T08:09:11.725Z,19.75
2022-08-19T08:11:50.421Z,19.81
2022-08-19T08:14:35.127Z,19.91
2022-08-19T08:17:10.718Z,19.94
2022-08-19T08:19:43.440Z,19.98
2022-08-19T08:22:36.869Z,20.03
2022-08-19T08:25:13.047Z,20.11
2022-08-19T08:27:46.907Z,20.15
2022-08-19T08:30:22.701Z,20.21
2022-08-19T08:32:54.309Z,20.24
2022-08-19T08:35:25.973Z,20.37
2022-08-19T08:37:57.780Z,20.39
2022-08-19T08:40:50.700Z,20.49
2022-08-19T08:43:32.367Z,20.51
2022-08-19T08:46:08.670Z,20.56
2022-08-19T08:48:55.272Z,20.49
2022-08-19T08:51:35.166Z,20.50
2022-08-19T08:54:09.896Z,20.48
2022-08-19T08:56:44.122Z,20.60
2022-08-19T08:59:27.409Z,20.66
2022-08-19T09:01:59.454Z,20.70
2022-08-19T09:04:30.939Z,20.71
2022-08-19T09:07:34.745Z,20.70
2022-08-19T09:10:29.383Z,20.75
2022-08-19T09:13:24.614Z,20.79
2022-08-19T09:16:02.329Z,20.83
2022-08-19T09:18:54.041Z,20.80
2022-08-19T09:21:33.148Z,20.77
2022-08-19T09:24:06.410Z,20.76
2022-08-19T09:26:48.664Z,20.78
2022-08-19T09:29:24.226Z,20.88
2022-08-19T09:31:55.708Z,21.01
2022-08-19T09:34:27.047Z,21.21
2022-08-19T09:37:00.957Z,21.49
2022-08-19T09:39:35.923Z,21.83
2022-08-19T09:42:16.635Z,22.14
2022-08-19T09:45:01.538Z,22.35
2022-08-19T09:47:38.950Z,22.40
2022-08-19T09:50:16.610Z,22.56
2022-08-19T09:52:54.157Z,22.59
2022-08-19T09:55:31.904Z,22.64
2022-08-19T09:58:04.409Z,22.71
2022-08-19T10:00:38.573Z,22.87
2022-08-19T10:03:09.899Z,22.90
2022-08-19T10:05:49.412Z,22.93
2022-08-19T10:08:26.632Z,23.03
2022-08-19T10:10:58.933Z,23.25
2022-08-19T10:13:32.813Z,23.35
2022-08-19T10:16:07.619Z,23.41
2022-08-19T10:18:44.554Z,23.51
2022-08-19T10:21:28.436Z,23.74
2022-08-19T10:24:06.239Z,23.79
2022-08-19T10:26:42.870Z,23.75
2022-08-19T10:29:32.064Z,23.74
2022-08-19T10:32:09.477Z,23.61
2022-08-19T10:34:48.408Z,23.59
2022-08-19T10:37:29.167Z,23.65
2022-08-19T10:40:09.028Z,23.89
2022-08-19T10:42:40.433Z,24.15
2022-08-19T10:45:12.008Z,24.31
2022-08-19T10:47:43.372Z,24.33
2022-08-19T10:50:33.265Z,24.28
2022-08-19T10:53:09.671Z,24.31
2022-08-19T10:55:59.746Z,24.37
2022-08-19T10:58:31.164Z,24.50
2022-08-19T11:01:02.570Z,24.52
2022-08-19T11:03:34.021Z,24.50
2022-08-19T11:06:08.069Z,24.52
2022-08-19T11:08:39.843Z,24.65
2022-08-19T11:11:11.525Z,24.77
2022-08-19T11:13:45.033Z,24.92
2022-08-19T11:16:26.978Z,24.93
2022-08-19T11:18:59.870Z,24.96
2022-08-19T11:21:34.202Z,25.04
2022-08-19T11:24:12.207Z,25.04
2022-08-19T11:26:45.121Z,25.09
2022-08-19T11:29:18.369Z,25.19
2022-08-19T11:31:50.706Z,25.36
2022-08-19T11:34:26.098Z,25.58
2022-08-19T11:37:00.333Z,25.91
2022-08-19T11:39:32.866Z,26.21
2022-08-19T11:42:25.988Z,26.28
2022-08-19T11:44:57.393Z,25.97
2022-08-19T11:47:29.118Z,25.74
2022-08-19T11:50:00.509Z,25.57
2022-08-19T11:52:31.873Z,25.51
2022-08-19T11:55:03.462Z,25.66
2022-08-19T11:57:34.846Z,25.92
2022-08-19T12:00:08.030Z,26.17
2022-08-19T12:02:39.397Z,26.46
2022-08-19T12:05:12.981Z,26.68
2022-08-19T12:07:44.732Z,26.76
2022-08-19T12:10:17.523Z,26.81
2022-08-19T12:12:58.630Z,26.87
2022-08-19T12:15:37.125Z,27.03
2022-08-19T12:18:09.939Z,27.24
2022-08-19T12:20:43.618Z,27.32
2022-08-19T12:23:15.153Z,27.30
2022-08-19T12:25:52.632Z,27.22
2022-08-19T12:28:25.505Z,27.08
2022-08-19T12:30:57.634Z,26.92
2022-08-19T12:33:29.468Z,26.74
2022-08-19T12:36:04.553Z,26.61
2022-08-19T12:38:37.044Z,26.44
2022-08-19T12:41:11.947Z,26.38
2022-08-19T12:43:43.872Z,26.35
2022-08-19T12:46:15.205Z,26.30
2022-08-19T12:48:48.953Z,26.33
2022-08-19T12:51:26.193Z,26.34
2022-08-19T12:53:57.562Z,26.42
2022-08-19T12:56:28.900Z,26.52
2022-08-19T12:59:03.950Z,26.59
2022-08-19T13:01:35.322Z,26.68
2022-08-19T13:04:06.658Z,26.64
2022-08-19T13:06:38.338Z,26.57
2022-08-19T13:09:10.048Z,26.63
2022-08-19T13:11:41.457Z,26.68
2022-08-19T13:14:12.766Z,26.80
2022-08-19T13:16:44.119Z,26.83
2022-08-19T13:19:15.454Z,26.75
2022-08-19T13:21:50.488Z,26.76
2022-08-19T13:24:22.417Z,26.80
2022-08-19T13:27:00.214Z,26.86
2022-08-19T13:29:50.060Z,26.78
2022-08-19T13:32:40.164Z,26.61
2022-08-19T13:35:16.709Z,26.44
2022-08-19T13:37:48.506Z,26.36
2022-08-19T13:40:24.858Z,26.40
2022-08-19T13:42:56.370Z,26.32
2022-08-19T13:45:29.855Z,26.32
2022-08-19T13:48:05.830Z,26.34
2022-08-19T13:50:42.949Z,26.35
2022-08-19T13:53:15.106Z,26.38
2022-08-19T13:55:46.492Z,26.44
2022-08-19T13:58:18.084Z,26.60
2022-08-19T14:00:50.639Z,26.76
2022-08-19T14:03:22.076Z,26.83
2022-08-19T14:05:53.386Z,26.70
2022-08-19T14:08:24.968Z,26.49
2022-08-19T14:10:56.297Z,26.36
2022-08-19T14:13:27.652Z,26.31
2022-08-19T14:15:59.032Z,26.35
2022-08-19T14:18:31.024Z,26.53
2022-08-19T14:21:03.878Z,26.86
2022-08-19T14:23:36.885Z,27.02
2022-08-19T14:26:12.691Z,27.09
2022-08-19T14:28:45.295Z,27.03
2022-08-19T14:31:19.803Z,26.88
2022-08-19T14:33:51.692Z,26.77
2022-08-19T14:36:22.998Z,26.79
2022-08-19T14:38:54.308Z,26.85
2022-08-19T14:41:25.697Z,26.80
2022-08-19T14:43:58.066Z,26.77
2022-08-19T14:46:30.050Z,26.73
2022-08-19T14:49:01.658Z,26.86
2022-08-19T14:51:40.854Z,26.92
2022-08-19T14:54:12.654Z,26.93
2022-08-19T14:56:44.303Z,26.91
2022-08-19T14:59:15.697Z,26.93
2022-08-19T15:01:47.094Z,26.81
2022-08-19T15:04:18.435Z,26.78
2022-08-19T15:06:50.210Z,26.76
2022-08-19T15:09:21.524Z,26.77
2022-08-19T15:11:52.904Z,26.74
2022-08-19T15:14:24.198Z,26.69
2022-08-19T15:16:55.507Z,26.65
2022-08-19T15:19:26.831Z,26.63
2022-08-19T15:21:58.738Z,26.61
2022-08-19T15:24:30.038Z,26.58
2022-08-19T15:27:01.467Z,26.46
2022-08-19T15:29:33.204Z,26.25
2022-08-19T15:32:06.911Z,26.19
2022-08-19T15:34:38.542Z,26.16
2022-08-19T15:37:09.886Z,26.19
2022-08-19T15:39:41.204Z,26.28
2022-08-19T15:42:12.554Z,26.27
2022-08-19T15:44:49.942Z,26.25
2022-08-19T15:47:22.035Z,26.16
2022-08-19T15:49:56.652Z,26.01
2022-08-19T15:52:30.230Z,25.90
2022-08-19T15:55:06.775Z,25.82
2022-08-19T15:57:56.850Z,25.71
2022-08-19T16:00:46.948Z,25.68
2022-08-19T16:03:42.856Z,25.63
2022-08-19T16:06:27.626Z,25.66
2022-08-19T16:09:04.810Z,25.67
2022-08-19T16:11:39.419Z,25.57
2022-08-19T16:14:11.119Z,25.59
2022-08-19T16:16:46.792Z,25.57
2022-08-19T16:19:19.874Z,25.55
2022-08-19T16:21:55.596Z,25.54
2022-08-19T16:24:28.411Z,25.51
2022-08-19T16:27:01.401Z,25.43
2022-08-19T16:29:39.289Z,25.42
2022-08-19T16:32:11.836Z,25.42
2022-08-19T16:34:44.032Z,25.43
2022-08-19T16:37:17.816Z,25.43
2022-08-19T16:39:49.475Z,25.36
2022-08-19T16:42:20.920Z,25.30
2022-08-19T16:44:52.490Z,25.26
2022-08-19T16:47:23.883Z,25.24
2022-08-19T16:49:55.620Z,25.23
2022-08-19T16:52:27.196Z,25.25
2022-08-19T16:54:59.080Z,25.27
2022-08-19T16:57:32.132Z,25.25
2022-08-19T17:00:09.685Z,25.19
2022-08-19T17:02:40.979Z,25.20
2022-08-19T17:05:12.414Z,25.11
2022-08-19T17:07:43.810Z,25.02
2022-08-19T17:10:15.257Z,24.86
2022-08-19T17:12:46.566Z,24.82
2022-08-19T17:15:18.033Z,24.76
2022-08-19T17:17:49.360Z,24.70
2022-08-19T17:20:20.781Z,24.64
2022-08-19T17:22:52.086Z,24.62
2022-08-19T17:25:27.560Z,24.58
2022-08-19T17:28:10.225Z,24.52
2022-08-19T17:30:41.573Z,24.51
2022-08-19T17:33:13.549Z,24.50
2022-08-19T17:35:45.006Z,24.45
2022-08-19T17:38:23.102Z,24.40
2022-08-19T17:41:01.118Z,24.35
2022-08-19T17:43:36.525Z,24.27
2022-08-19T17:46:13.210Z,24.21
2022-08-19T17:48:52.871Z,24.19
2022-08-19T17:51:33.144Z,24.12
2022-08-19T17:54:06.346Z,24.04
2022-08-19T17:56:38.066Z,23.96
2022-08-19T17:59:13.840Z,23.94
2022-08-19T18:01:53.156Z,23.89
2022-08-19T18:04:30.534Z,23.83
2022-08-19T18:07:08.112Z,23.77
2022-08-19T18:12:24.545Z,23.62
2022-08-19T18:14:57.855Z,23.58
2022-08-19T18:17:30.161Z,23.47
2022-08-19T18:20:01.811Z,23.46
2022-08-19T18:22:42.646Z,23.39
2022-08-19T18:25:19.074Z,23.34
2022-08-19T18:27:53.124Z,23.23
2022-08-19T18:30:26.389Z,23.15
2022-08-19T18:32:59.698Z,23.08
2022-08-19T18:35:32.393Z,22.95
2022-08-19T18:38:23.719Z,22.88
2022-08-19T18:41:13.837Z,22.80
2022-08-19T18:44:04.333Z,22.74
2022-08-19T18:46:54.630Z,22.63
2022-08-19T18:49:31.910Z,22.53
2022-08-19T18:52:03.574Z,22.43
2022-08-19T18:54:35.596Z,22.28
2022-08-19T18:57:06.919Z,22.23
2022-08-19T18:59:38.617Z,22.15
2022-08-19T19:02:11.780Z,22.05
2022-08-19T19:04:43.499Z,21.97
2022-08-19T19:07:15.232Z,21.88
2022-08-19T19:09:52.602Z,21.78
2022-08-19T19:12:29.003Z,21.70
2022-08-19T19:15:01.706Z,21.64
2022-08-19T19:17:33.009Z,21.56
2022-08-19T19:20:05.266Z,21.39
2022-08-19T19:22:36.604Z,21.30
2022-08-19T19:25:08.734Z,21.22
2022-08-19T19:27:40.417Z,21.15
2022-08-19T19:30:13.646Z,21.07
2022-08-19T19:32:45.175Z,20.98
2022-08-19T19:35:16.985Z,20.89
2022-08-19T19:37:52.506Z,20.80
2022-08-19T19:40:23.970Z,20.67
2022-08-19T19:42:55.594Z,20.63
2022-08-19T19:45:27.970Z,20.50
2022-08-19T19:48:00.554Z,20.50
2022-08-19T19:50:32.159Z,20.43
2022-08-19T19:53:03.477Z,20.37
2022-08-19T19:55:34.786Z,20.27
2022-08-19T19:58:06.901Z,20.25
2022-08-19T20:00:38.325Z,20.16
2022-08-19T20:03:10.383Z,20.13
2022-08-19T20:05:41.683Z,20.07
2022-08-19T20:08:31.380Z,20.02
2022-08-19T20:11:05.709Z,19.95
2022-08-19T20:13:40.471Z,19.88
2022-08-19T20:16:11.829Z,19.82
2022-08-19T20:18:43.648Z,19.77
2022-08-19T20:21:14.946Z,19.73
2022-08-19T20:24:08.964Z,19.69
2022-08-19T20:26:37.814Z,19.63
2022-08-19T20:29:13.702Z,19.58
2022-08-19T20:32:00.572Z,19.55
2022-08-19T20:34:33.671Z,19.50
2022-08-19T20:37:05.281Z,19.44
2022-08-19T20:39:37.249Z,19.41
2022-08-19T20:42:08.612Z,19.32
2022-08-19T20:44:39.912Z,19.26
2022-08-19T20:47:11.280Z,19.28
2022-08-19T20:49:42.586Z,19.26
2022-08-19T20:52:13.913Z,19.23
2022-08-19T20:54:45.228Z,19.21
2022-08-19T20:57:16.542Z,19.19
2022-08-19T20:59:47.841Z,19.16
2022-08-19T21:02:20.952Z,19.12
2022-08-19T21:04:52.352Z,19.06
2022-08-19T21:07:38.808Z,19.06
2022-08-19T21:10:11.167Z,19.05
2022-08-19T21:12:44.257Z,19.04
2022-08-19T21:15:18.238Z,19.02
2022-08-19T21:17:51.347Z,19.02
2022-08-19T21:20:22.934Z,19.01
2022-08-19T21:22:57.859Z,19.01
2022-08-19T21:25:30.239Z,18.97
2022-08-19T21:28:01.807Z,18.95
2022-08-19T21:30:34.770Z,18.96
2022-08-19T21:33:07.275Z,18.95
2022-08-19T21:35:39.626Z,18.88
2022-08-19T21:38:11.122Z,18.89
2022-08-19T21:40:42.462Z,18.92
2022-08-19T21:43:14.645Z,18.88
2022-08-19T21:45:47.444Z,18.90
2022-08-19T21:48:19.010Z,18.89
2022-08-19T21:50:50.833Z,18.82
2022-08-19T21:53:22.956Z,18.88
2022-08-19T21:55:54.549Z,18.83
2022-08-19T21:58:28.125Z,18.85
2022-08-19T22:01:05.901Z,18.85
2022-08-19T22:03:38.551Z,18.76
2022-08-19T22:06:09.949Z,18.79
2022-08-19T22:08:42.115Z,18.77
2022-08-19T22:11:13.430Z,18.75
2022-08-19T22:13:44.750Z,18.73
2022-08-19T22:16:17.973Z,18.74
2022-08-19T22:18:50.698Z,18.72
2022-08-19T22:21:40.069Z,18.72
2022-08-19T22:24:12.018Z,18.72
2022-08-19T22:26:43.332Z,18.68
2022-08-19T22:29:17.252Z,18.73
2022-08-19T22:31:54.300Z,18.75
2022-08-19T22:34:29.791Z,18.75
2022-08-19T22:37:01.117Z,18.79
2022-08-19T22:39:32.457Z,18.84
2022-08-19T22:42:03.849Z,18.91
2022-08-19T22:44:35.209Z,18.91
2022-08-19T22:47:06.600Z,19.04
2022-08-19T22:49:37.945Z,19.02
2022-08-19T22:52:17.202Z,19.13
2022-08-19T22:54:51.906Z,19.16
2022-08-19T22:57:23.638Z,19.19
2022-08-19T22:59:58.908Z,19.23
2022-08-19T23:02:38.330Z,19.27
2022-08-19T23:05:10.988Z,19.28
2022-08-19T23:07:42.327Z,19.32
2022-08-19T23:10:27.485Z,19.35
2022-08-19T23:13:00.197Z,19.38
2022-08-19T23:15:32.476Z,19.41
2022-08-19T23:18:04.704Z,19.44
2022-08-19T23:20:38.613Z,19.44
2022-08-19T23:23:18.676Z,19.47
2022-08-19T23:25:52.200Z,19.52
2022-08-19T23:28:41.990Z,19.53
2022-08-19T23:31:13.382Z,19.55
2022-08-19T23:33:51.387Z,19.55
2022-08-19T23:36:23.591Z,19.56
2022-08-19T23:38:55.293Z,19.52
2022-08-19T23:41:29.800Z,19.51
2022-08-19T23:44:01.124Z,19.46
2022-08-19T23:46:32.497Z,19.43
2022-08-19T23:49:21.973Z,19.41
2022-08-19T23:51:54.610Z,19.42
2022-08-19T23:54:27.451Z,19.45
2022-08-19T23:57:14.984Z,19.53
2022-08-19T23:59:46.364Z,19.55
